Time;durP1;ratioP1;P1;durP2;ratioP2;P2;SDS_P1;SDS_P2;PMS_P1;PMS_P2;Temp;Humidity;BMP_temperature;BMP_pressure;BME280_temperature;BME280_humidity;BME280_pressure;Samples;Min_cycle;Max_cycle;Signal;HPM_P1;HPM_P2
2023/11/19 00:00:28;;;;;;;;;;;;;;;10.51;55.82;100789.13;4970022;27;97950;-65
2023/11/19 00:02:54;;;;;;;;;;;;;;;10.51;55.97;100794.50;4979707;27;100560;-65
2023/11/19 00:05:20;;;;;;;;;;;;;;;10.50;55.70;100793.69;4971531;27;100073;-69
2023/11/19 00:07:46;;;;;;;;;;;;;;;10.49;55.76;100775.91;5017149;27;98113;-70
2023/11/19 00:10:13;;;;;;;;;;;;;;;10.49;55.79;100757.03;4968894;27;100866;-69
2023/11/19 00:12:45;;;;;;;;;;;;;;;10.49;55.84;100743.56;4990243;27;98280;-69
2023/11/19 00:15:13;;;;;;;;;;;;;;;10.48;55.45;100733.03;4979847;27;98270;-69
2023/11/19 00:17:48;;;;;;;;;;;;;;;10.47;55.77;100732.22;4968513;27;99544;-69
2023/11/19 00:20:15;;;;;;;;;;;;;;;10.47;55.52;100729.53;4976914;27;98022;-65
2023/11/19 00:22:42;;;;;;;;;;;;;;;10.46;55.85;100725.22;4993746;27;99363;-65
2023/11/19 00:25:09;;;;;;;;;;;;;;;10.45;55.59;100718.22;4987598;27;98004;-69
2023/11/19 00:27:35;;;;;;;;;;;;;;;10.46;56.00;100717.13;4975515;27;98233;-69
2023/11/19 00:30:01;;;;;;;;;;;;;;;10.46;55.55;100710.94;4966721;27;99721;-69
2023/11/19 00:32:28;;;;;;;;;;;;;;;10.45;55.91;100707.44;5006373;27;98334;-65
2023/11/19 00:34:54;;;;;;;;;;;;;;;10.46;55.34;100710.94;4972880;27;97959;-65
2023/11/19 00:37:20;;;;;;;;;;;;;;;10.43;55.89;100698.78;4976478;27;100383;-69
2023/11/19 00:39:46;;;;;;;;;;;;;;;10.43;55.53;100700.66;4962799;27;116490;-65
2023/11/19 00:42:12;;;;;;;;;;;;;;;10.45;55.70;100682.34;4964477;27;99610;-65
2023/11/19 00:44:38;;;;;;;;;;;;;;;10.43;55.95;100682.59;4982563;27;98238;-69
2023/11/19 00:47:05;;;;;;;;;;;;;;;10.41;55.55;100679.34;4967525;27;98284;-70
2023/11/19 00:49:32;;;;;;;;;;;;;;;10.42;55.38;100674.78;4977866;27;98132;-69
2023/11/19 00:51:59;;;;;;;;;;;;;;;10.42;55.59;100677.50;4983497;27;98892;-65
2023/11/19 00:54:25;;;;;;;;;;;;;;;10.42;55.59;100667.53;4970483;27;101696;-69
2023/11/19 00:56:52;;;;;;;;;;;;;;;10.42;55.57;100670.22;4972253;27;98238;-65
2023/11/19 00:59:19;;;;;;;;;;;;;;;10.42;55.78;100664.81;4962739;27;98388;-65
2023/11/19 01:01:45;;;;;;;;;;;;;;;10.41;55.53;100662.38;4959349;27;101537;-69
2023/11/19 01:04:11;;;;;;;;;;;;;;;10.40;55.58;100644.59;4984738;27;98280;-69
2023/11/19 01:06:37;;;;;;;;;;;;;;;10.40;55.72;100639.19;4966259;27;118248;-65
2023/11/19 01:09:03;;;;;;;;;;;;;;;10.40;55.81;100637.31;4972905;27;104262;-65
2023/11/19 01:11:29;;;;;;;;;;;;;;;10.38;55.49;100639.47;4963317;27;127941;-65
2023/11/19 01:13:55;;;;;;;;;;;;;;;10.38;55.67;100636.78;4958878;27;98500;-69
2023/11/19 01:16:22;;;;;;;;;;;;;;;10.38;55.88;100622.50;4973806;27;99442;-69
2023/11/19 01:18:48;;;;;;;;;;;;;;;10.37;56.02;100624.34;4992779;27;98136;-65
2023/11/19 01:21:15;;;;;;;;;;;;;;;10.36;55.51;100617.34;4989509;27;97992;-69
2023/11/19 01:23:44;;;;;;;;;;;;;;;10.37;55.69;100615.47;4967138;27;98265;-69
2023/11/19 01:26:12;;;;;;;;;;;;;;;10.36;55.74;100597.69;4974627;27;99232;-65
2023/11/19 01:28:44;;;;;;;;;;;;;;;10.35;55.57;100591.47;4990397;27;98364;-69
2023/11/19 01:31:11;;;;;;;;;;;;;;;10.34;55.82;100591.75;4979901;27;100122;-65
2023/11/19 01:33:37;;;;;;;;;;;;;;;10.32;55.87;100592.81;4988001;27;98104;-69
2023/11/19 01:36:04;;;;;;;;;;;;;;;10.34;55.56;100586.38;4953081;27;98160;-69
2023/11/19 01:38:33;;;;;;;;;;;;;;;10.33;55.58;100569.38;4972935;27;98128;-69
2023/11/19 01:40:59;;;;;;;;;;;;;;;10.31;55.80;100558.88;4986157;27;98312;-69
2023/11/19 01:43:35;;;;;;;;;;;;;;;10.32;55.44;100555.09;4970799;27;98210;-68
2023/11/19 01:46:03;;;;;;;;;;;;;;;10.32;55.88;100530.03;4978570;27;100066;-69
2023/11/19 01:48:29;;;;;;;;;;;;;;;10.31;55.76;100512.25;4965293;27;99564;-68
2023/11/19 01:50:55;;;;;;;;;;;;;;;10.30;55.83;100519.53;4972962;27;98678;-64
2023/11/19 01:53:21;;;;;;;;;;;;;;;10.29;55.47;100509.81;4970589;27;97989;-65
2023/11/19 01:55:47;;;;;;;;;;;;;;;10.28;55.45;100508.19;4961438;27;107621;-69
2023/11/19 01:58:13;;;;;;;;;;;;;;;10.28;55.44;100502.81;4960894;27;98156;-65
2023/11/19 02:00:39;;;;;;;;;;;;;;;10.27;55.48;100503.06;4979571;27;99685;-69
2023/11/19 02:03:08;;;;;;;;;;;;;;;10.27;55.68;100508.47;4963325;27;104738;-66
2023/11/19 02:05:34;;;;;;;;;;;;;;;10.27;55.84;100492.31;4981035;27;98288;-69
2023/11/19 02:07:59;;;;;;;;;;;;;;;10.26;55.97;100482.59;4959600;27;126822;-69
2023/11/19 02:10:25;;;;;;;;;;;;;;;10.26;55.41;100471.84;4981052;27;100111;-65
2023/11/19 02:12:51;;;;;;;;;;;;;;;10.24;55.54;100466.66;4966867;27;105933;-65
2023/11/19 02:15:21;;;;;;;;;;;;;;;10.25;55.96;100460.22;4971228;27;98243;-65
2023/11/19 02:17:47;;;;;;;;;;;;;;;10.25;55.54;100444.06;4971839;27;98427;-65
2023/11/19 02:20:15;;;;;;;;;;;;;;;10.24;55.63;100428.13;5002296;27;98143;-65
2023/11/19 02:22:41;;;;;;;;;;;;;;;10.24;55.63;100431.63;4965091;27;98604;-69
2023/11/19 02:25:29;;;;;;;;;;;;;;;10.24;55.83;100420.06;5003598;27;99311;-65
2023/11/19 02:27:59;;;;;;;;;;;;;;;10.25;55.58;100413.63;4974821;27;128007;-65
2023/11/19 02:30:28;;;;;;;;;;;;;;;10.23;55.56;100408.47;4989222;27;98069;-69
2023/11/19 02:32:57;;;;;;;;;;;;;;;10.22;55.86;100398.78;4967698;27;98275;-69
2023/11/19 02:35:23;;;;;;;;;;;;;;;10.23;55.61;100416.56;4965525;27;99355;-69
2023/11/19 02:37:49;;;;;;;;;;;;;;;10.22;55.75;100403.38;4963833;27;98128;-69
2023/11/19 02:40:17;;;;;;;;;;;;;;;10.22;55.74;100406.06;4967970;27;127196;-65
2023/11/19 02:42:43;;;;;;;;;;;;;;;10.22;55.90;100404.16;4995266;27;98385;-70
2023/11/19 02:45:13;;;;;;;;;;;;;;;10.22;55.98;100396.09;4979447;27;128877;-65
2023/11/19 02:47:42;;;;;;;;;;;;;;;10.22;55.88;100395.28;4976804;27;99918;-65
2023/11/19 02:50:14;;;;;;;;;;;;;;;10.21;55.86;100383.66;4968290;27;98444;-65
2023/11/19 02:52:44;;;;;;;;;;;;;;;10.21;55.55;100364.81;4975256;27;97981;-65
2023/11/19 02:55:14;;;;;;;;;;;;;;;10.21;55.69;100362.13;4982796;27;99901;-69
2023/11/19 02:57:47;;;;;;;;;;;;;;;10.21;55.76;100359.44;4969524;27;98991;-65
2023/11/19 03:00:17;;;;;;;;;;;;;;;10.22;56.02;100357.56;4971334;27;98078;-69
2023/11/19 03:02:46;;;;;;;;;;;;;;;10.22;55.60;100349.47;4980177;27;98042;-69
2023/11/19 03:05:14;;;;;;;;;;;;;;;10.22;55.48;100330.63;4964711;27;98000;-70
2023/11/19 03:07:42;;;;;;;;;;;;;;;10.21;55.61;100316.31;4973432;27;98085;-69
2023/11/19 03:10:12;;;;;;;;;;;;;;;10.22;55.66;100309.06;4970969;27;98067;-69
2023/11/19 03:12:38;;;;;;;;;;;;;;;10.22;55.41;100309.06;4988187;27;98020;-65
2023/11/19 03:15:04;;;;;;;;;;;;;;;10.22;55.61;100304.50;4966757;27;98678;-69
2023/11/19 03:17:31;;;;;;;;;;;;;;;10.21;55.75;100300.16;4980517;27;114086;-69
2023/11/19 03:19:57;;;;;;;;;;;;;;;10.22;55.66;100292.91;4988061;27;98219;-65
2023/11/19 03:22:23;;;;;;;;;;;;;;;10.22;55.82;100282.94;4999281;27;98356;-65
2023/11/19 03:24:51;;;;;;;;;;;;;;;10.22;55.77;100274.88;4984226;27;128156;-65
2023/11/19 03:27:17;;;;;;;;;;;;;;;10.22;55.82;100268.66;5000290;27;100048;-70
2023/11/19 03:29:46;;;;;;;;;;;;;;;10.23;55.98;100267.59;4985925;27;127285;-65
2023/11/19 03:32:13;;;;;;;;;;;;;;;10.22;55.59;100269.47;5013713;27;110329;-65
2023/11/19 03:34:39;;;;;;;;;;;;;;;10.22;55.41;100272.16;4996475;27;99854;-65
2023/11/19 03:37:05;;;;;;;;;;;;;;;10.23;55.82;100254.13;4984857;27;98848;-70
2023/11/19 03:39:31;;;;;;;;;;;;;;;10.23;55.81;100249.53;4979987;27;98244;-65
2023/11/19 03:41:57;;;;;;;;;;;;;;;10.23;55.76;100246.84;4987983;27;99239;-69
2023/11/19 03:44:23;;;;;;;;;;;;;;;10.24;55.82;100240.38;4982618;27;99433;-70
2023/11/19 03:46:49;;;;;;;;;;;;;;;10.24;55.91;100237.66;4962352;27;127052;-65
2023/11/19 03:49:15;;;;;;;;;;;;;;;10.24;55.40;100228.78;4968387;27;98461;-65
2023/11/19 03:51:41;;;;;;;;;;;;;;;10.24;55.56;100228.78;4968116;27;98274;-70
2023/11/19 03:54:07;;;;;;;;;;;;;;;10.24;55.82;100215.31;4983214;27;99588;-70
2023/11/19 03:56:34;;;;;;;;;;;;;;;10.23;55.97;100211.00;4987515;27;97888;-70
2023/11/19 03:58:59;;;;;;;;;;;;;;;10.24;55.91;100220.72;4983904;27;98204;-66
2023/11/19 04:01:25;;;;;;;;;;;;;;;10.24;55.43;100215.31;4969329;27;111468;-70
2023/11/19 04:03:51;;;;;;;;;;;;;;;10.24;55.62;100215.31;4982977;27;98354;-65
2023/11/19 04:06:18;;;;;;;;;;;;;;;10.24;55.49;100216.13;4963221;27;100487;-70
2023/11/19 04:08:44;;;;;;;;;;;;;;;10.24;55.85;100209.94;4962413;27;98050;-66
2023/11/19 04:11:10;;;;;;;;;;;;;;;10.24;55.64;100197.25;4967670;27;98158;-65
2023/11/19 04:13:36;;;;;;;;;;;;;;;10.24;55.60;100196.47;4973266;27;98036;-66
2023/11/19 04:16:03;;;;;;;;;;;;;;;10.25;55.51;100179.25;4991707;27;101293;-65
2023/11/19 04:18:29;;;;;;;;;;;;;;;10.24;55.73;100175.72;4970146;27;98357;-65
2023/11/19 04:20:56;;;;;;;;;;;;;;;10.24;55.78;100173.03;4982943;27;98455;-70
2023/11/19 04:23:22;;;;;;;;;;;;;;;10.25;55.56;100171.16;4994947;27;98637;-65
2023/11/19 04:25:48;;;;;;;;;;;;;;;10.26;55.26;100167.41;4967730;27;98347;-69
2023/11/19 04:28:14;;;;;;;;;;;;;;;10.25;55.94;100155.78;4969958;27;108651;-66
2023/11/19 04:30:40;;;;;;;;;;;;;;;10.25;55.68;100161.19;4963789;27;98129;-65
2023/11/19 04:33:06;;;;;;;;;;;;;;;10.25;55.33;100145.03;4967164;27;99390;-65
2023/11/19 04:35:33;;;;;;;;;;;;;;;10.26;55.58;100135.09;5001598;27;100718;-65
2023/11/19 04:37:59;;;;;;;;;;;;;;;10.26;55.59;100129.69;4973254;27;98120;-66
2023/11/19 04:40:25;;;;;;;;;;;;;;;10.26;55.50;100135.88;5000500;27;98235;-65
2023/11/19 04:42:51;;;;;;;;;;;;;;;10.26;55.42;100140.47;4970113;27;98106;-70
2023/11/19 04:45:17;;;;;;;;;;;;;;;10.26;55.80;100138.56;4971730;27;98240;-65
2023/11/19 04:47:44;;;;;;;;;;;;;;;10.27;55.51;100139.38;4984356;27;127103;-66
2023/11/19 04:50:10;;;;;;;;;;;;;;;10.26;55.79;100141.28;5003726;27;98661;-65
2023/11/19 04:52:40;;;;;;;;;;;;;;;10.26;55.72;100143.97;4983677;27;98375;-69
2023/11/19 04:55:06;;;;;;;;;;;;;;;10.27;55.84;100136.69;4976503;27;98316;-70
2023/11/19 04:57:32;;;;;;;;;;;;;;;10.27;55.88;100131.31;4985610;27;99713;-70
2023/11/19 04:59:58;;;;;;;;;;;;;;;10.27;55.77;100115.13;4974466;27;98361;-70
2023/11/19 05:02:24;;;;;;;;;;;;;;;10.27;55.95;100112.44;4969445;27;98041;-65
2023/11/19 05:04:50;;;;;;;;;;;;;;;10.26;55.66;100108.94;4989807;27;99409;-66
2023/11/19 05:07:17;;;;;;;;;;;;;;;10.27;55.83;100098.97;4984669;27;97880;-65
2023/11/19 05:09:43;;;;;;;;;;;;;;;10.27;55.46;100097.09;4984771;27;98555;-65
2023/11/19 05:12:12;;;;;;;;;;;;;;;10.26;55.53;100098.16;4978168;27;114965;-66
2023/11/19 05:14:38;;;;;;;;;;;;;;;10.28;55.52;100092.50;4980509;27;99493;-69
2023/11/19 05:17:04;;;;;;;;;;;;;;;10.29;55.84;100086.03;4962905;27;111327;-66
2023/11/19 05:19:30;;;;;;;;;;;;;;;10.27;55.85;100077.41;4984494;27;98522;-69
2023/11/19 05:21:56;;;;;;;;;;;;;;;10.29;55.93;100075.25;4979933;27;101037;-64
2023/11/19 05:24:22;;;;;;;;;;;;;;;10.28;55.52;100073.63;4969687;27;98097;-69
2023/11/19 05:26:50;;;;;;;;;;;;;;;10.28;55.70;100066.38;4967263;27;97987;-69
2023/11/19 05:29:17;;;;;;;;;;;;;;;10.29;55.50;100069.84;4986192;27;98141;-65
2023/11/19 05:31:43;;;;;;;;;;;;;;;10.28;55.50;100055.59;4981747;27;98259;-69
2023/11/19 05:34:09;;;;;;;;;;;;;;;10.28;55.66;100042.13;4983964;27;114795;-69
2023/11/19 05:36:35;;;;;;;;;;;;;;;10.30;55.45;100033.78;4970660;27;127556;-65
2023/11/19 05:39:02;;;;;;;;;;;;;;;10.29;56.00;100035.63;4968864;27;109325;-69
2023/11/19 05:41:28;;;;;;;;;;;;;;;10.29;55.62;100024.88;4970126;27;98135;-65
2023/11/19 05:43:55;;;;;;;;;;;;;;;10.30;55.58;100025.69;4979142;27;116595;-69
2023/11/19 05:46:21;;;;;;;;;;;;;;;10.30;55.81;100026.50;4966760;27;103872;-69
2023/11/19 05:48:47;;;;;;;;;;;;;;;10.30;55.37;100028.38;4980873;27;98373;-69
2023/11/19 05:51:14;;;;;;;;;;;;;;;10.29;55.70;100024.88;4993850;27;100249;-65
2023/11/19 05:53:40;;;;;;;;;;;;;;;10.29;55.82;100030.25;4984219;27;98411;-65
2023/11/19 05:56:09;;;;;;;;;;;;;;;10.30;56.04;100023.00;4967884;27;98302;-69
2023/11/19 05:58:35;;;;;;;;;;;;;;;10.30;55.65;100017.63;4983192;27;98595;-69
2023/11/19 06:01:02;;;;;;;;;;;;;;;10.30;55.61;100013.03;4970656;27;98195;-65
2023/11/19 06:03:28;;;;;;;;;;;;;;;10.30;55.53;99998.75;4963726;27;98202;-69
2023/11/19 06:05:54;;;;;;;;;;;;;;;10.30;55.82;100004.16;4971842;27;98159;-69
2023/11/19 06:08:21;;;;;;;;;;;;;;;10.30;55.89;100006.84;4989898;27;116973;-69
2023/11/19 06:10:47;;;;;;;;;;;;;;;10.30;55.55;99996.88;4966161;27;97996;-65
2023/11/19 06:13:14;;;;;;;;;;;;;;;10.30;55.44;99991.47;4965559;27;97943;-65
2023/11/19 06:15:41;;;;;;;;;;;;;;;10.30;55.53;99994.16;4989160;27;99406;-65
2023/11/19 06:18:08;;;;;;;;;;;;;;;10.31;55.41;99985.00;4982035;27;98224;-65
2023/11/19 06:20:34;;;;;;;;;;;;;;;10.31;55.85;99970.72;4981978;27;98509;-69
2023/11/19 06:23:00;;;;;;;;;;;;;;;10.30;55.60;99966.44;4962235;27;97940;-69
2023/11/19 06:25:26;;;;;;;;;;;;;;;10.32;55.87;99975.03;4965522;27;98140;-65
2023/11/19 06:27:52;;;;;;;;;;;;;;;10.32;55.95;99978.53;4990111;27;98587;-69
2023/11/19 06:30:19;;;;;;;;;;;;;;;10.32;55.74;99978.53;4966764;27;98561;-65
2023/11/19 06:32:45;;;;;;;;;;;;;;;10.33;55.56;99982.00;4973714;27;99483;-70
2023/11/19 06:35:11;;;;;;;;;;;;;;;10.33;55.50;99979.31;4994732;27;98011;-65
2023/11/19 06:37:41;;;;;;;;;;;;;;;10.35;55.54;99970.97;4986252;27;97994;-65
2023/11/19 06:40:09;;;;;;;;;;;;;;;10.35;55.81;99957.50;4969765;27;98169;-65
2023/11/19 06:42:35;;;;;;;;;;;;;;;10.36;55.38;99969.88;4981425;27;99305;-65
2023/11/19 06:45:02;;;;;;;;;;;;;;;10.36;55.83;99962.59;4970361;27;100290;-65
2023/11/19 06:47:28;;;;;;;;;;;;;;;10.37;55.74;99958.81;4970115;27;97890;-65
2023/11/19 06:49:58;;;;;;;;;;;;;;;10.37;55.40;99958.81;4972094;27;99130;-69
2023/11/19 06:52:24;;;;;;;;;;;;;;;10.38;55.80;99949.69;4971597;27;97896;-66
2023/11/19 06:54:50;;;;;;;;;;;;;;;10.37;55.83;99948.03;4980972;27;98481;-69
2023/11/19 06:57:16;;;;;;;;;;;;;;;10.39;55.53;99940.50;4967977;27;98303;-71
2023/11/19 06:59:43;;;;;;;;;;;;;;;10.40;55.80;99949.38;4959298;27;98023;-69
2023/11/19 07:02:09;;;;;;;;;;;;;;;10.40;55.77;99958.28;4968224;27;98149;-65
2023/11/19 07:04:35;;;;;;;;;;;;;;;10.40;55.76;99947.50;5010673;27;98925;-65
2023/11/19 07:07:01;;;;;;;;;;;;;;;10.41;55.79;99962.56;4978144;27;98206;-69
2023/11/19 07:09:27;;;;;;;;;;;;;;;10.41;55.68;99943.72;4966633;27;100069;-69
2023/11/19 07:11:53;;;;;;;;;;;;;;;10.44;55.80;99950.44;4986963;27;98238;-70
2023/11/19 07:14:19;;;;;;;;;;;;;;;10.44;55.38;99956.63;4966829;27;98055;-65
2023/11/19 07:16:46;;;;;;;;;;;;;;;10.45;55.84;99966.34;4984269;27;98745;-65
2023/11/19 07:19:12;;;;;;;;;;;;;;;10.45;55.73;99963.66;4984299;27;98322;-65
2023/11/19 07:21:43;;;;;;;;;;;;;;;10.45;55.80;99947.50;4987451;27;100478;-65
2023/11/19 07:24:10;;;;;;;;;;;;;;;10.48;55.50;99946.09;4993820;27;98256;-65
2023/11/19 07:26:37;;;;;;;;;;;;;;;10.48;55.49;99944.22;4976537;27;98497;-70
2023/11/19 07:29:03;;;;;;;;;;;;;;;10.51;55.68;99937.47;4980794;27;98091;-70
2023/11/19 07:31:29;;;;;;;;;;;;;;;10.52;55.67;99934.47;4972203;27;98143;-70
2023/11/19 07:33:55;;;;;;;;;;;;;;;10.52;55.49;99945.25;4971199;27;102547;-70
2023/11/19 07:36:21;;;;;;;;;;;;;;;10.54;55.96;99936.91;4985679;27;98035;-70
2023/11/19 07:38:50;;;;;;;;;;;;;;;10.53;55.76;99946.91;4971400;27;98667;-70
2023/11/19 07:41:16;;;;;;;;;;;;;;;10.57;55.71;99936.34;4975459;27;98313;-65
2023/11/19 07:43:46;;;;;;;;;;;;;;;10.62;55.41;99932.81;4962923;27;98490;-70
2023/11/19 07:46:13;;;;;;;;;;;;;;;10.65;55.64;99930.38;4970105;27;98727;-65
2023/11/19 07:48:39;;;;;;;;;;;;;;;10.68;55.67;99934.38;4985373;27;99802;-69
2023/11/19 07:51:05;;;;;;;;;;;;;;;10.71;55.24;99941.91;4986032;27;98339;-65
2023/11/19 07:53:32;;;;;;;;;;;;;;;10.73;55.55;99947.84;4966569;27;98127;-66
2023/11/19 07:56:01;;;;;;;;;;;;;;;10.74;55.64;99941.34;4973656;27;98136;-71
2023/11/19 07:58:27;;;;;;;;;;;;;;;10.74;55.75;99944.06;4971964;27;98386;-70
2023/11/19 08:00:53;;;;;;;;;;;;;;;10.76;55.40;99929.19;4975204;27;98187;-65
2023/11/19 08:03:19;;;;;;;;;;;;;;;10.79;55.52;99939.41;4983769;27;98078;-65
2023/11/19 08:05:46;;;;;;;;;;;;;;;10.84;55.38;99932.38;4968117;27;98175;-70
2023/11/19 08:08:12;;;;;;;;;;;;;;;10.89;55.39;99937.75;4999173;27;98342;-70
2023/11/19 08:10:38;;;;;;;;;;;;;;;10.91;55.31;99941.75;4966429;27;99952;-65
2023/11/19 08:13:04;;;;;;;;;;;;;;;10.95;55.26;99934.72;4980493;27;98417;-65
2023/11/19 08:15:30;;;;;;;;;;;;;;;11.03;55.31;99939.50;4961784;27;98866;-65
2023/11/19 08:17:56;;;;;;;;;;;;;;;11.08;55.62;99938.66;4963232;27;98161;-65
2023/11/19 08:20:22;;;;;;;;;;;;;;;11.07;55.39;99937.84;4991352;27;98764;-64
2023/11/19 08:22:48;;;;;;;;;;;;;;;11.16;55.20;99934.53;4968141;27;98108;-70
2023/11/19 08:25:15;;;;;;;;;;;;;;;11.20;55.20;99939.09;4965002;27;98878;-65
2023/11/19 08:27:41;;;;;;;;;;;;;;;11.22;55.19;99934.22;4979211;27;98654;-69
2023/11/19 08:30:07;;;;;;;;;;;;;;;11.27;55.06;99917.97;4966495;27;113042;-64
2023/11/19 08:32:33;;;;;;;;;;;;;;;11.36;55.33;99922.75;4965771;27;98165;-64
2023/11/19 08:34:59;;;;;;;;;;;;;;;11.51;55.13;99918.03;4983830;27;97917;-69
2023/11/19 08:37:25;;;;;;;;;;;;;;;11.62;55.05;99920.59;4962447;27;98344;-69
2023/11/19 08:39:51;;;;;;;;;;;;;;;11.67;55.13;99920.53;4975655;27;129535;-64
2023/11/19 08:42:17;;;;;;;;;;;;;;;11.79;55.06;99921.75;4996806;27;98311;-69
2023/11/19 08:44:46;;;;;;;;;;;;;;;11.80;55.13;99925.25;4983688;27;121195;-64
2023/11/19 08:47:12;;;;;;;;;;;;;;;11.84;55.02;99929.00;4969610;27;97974;-64
2023/11/19 08:49:39;;;;;;;;;;;;;;;11.88;55.03;99931.94;4959350;27;98400;-65
2023/11/19 08:52:07;;;;;;;;;;;;;;;12.02;54.85;99933.66;4964542;27;98153;-69
2023/11/19 08:54:33;;;;;;;;;;;;;;;12.47;54.19;99930.63;4970885;27;98036;-69
2023/11/19 08:57:00;;;;;;;;;;;;;;;12.45;54.67;99927.38;4988700;27;98319;-65
2023/11/19 08:59:26;;;;;;;;;;;;;;;12.50;54.92;99925.44;4973834;27;98169;-69
2023/11/19 09:01:52;;;;;;;;;;;;;;;12.57;54.50;99925.03;4966197;27;99704;-69
2023/11/19 09:04:18;;;;;;;;;;;;;;;12.57;54.71;99924.25;4969544;27;97828;-65
2023/11/19 09:06:44;;;;;;;;;;;;;;;12.71;54.92;99922.41;4972206;27;98301;-65
2023/11/19 09:09:10;;;;;;;;;;;;;;;13.11;54.12;99926.34;4972297;27;100558;-65
2023/11/19 09:11:36;;;;;;;;;;;;;;;13.60;53.83;99913.34;4971205;27;98039;-69
2023/11/19 09:14:02;;;;;;;;;;;;;;;14.33;53.26;99908.81;4989730;27;97976;-64
2023/11/19 09:16:29;;;;;;;;;;;;;;;14.51;53.26;99904.38;4977985;27;99920;-70
2023/11/19 09:18:55;;;;;;;;;;;;;;;15.39;52.35;99913.56;4962804;27;99916;-65
2023/11/19 09:21:21;;;;;;;;;;;;;;;16.16;51.58;99908.72;4961920;27;128035;-70
2023/11/19 09:23:48;;;;;;;;;;;;;;;17.09;51.08;99907.41;4983715;27;110120;-69
2023/11/19 09:26:14;;;;;;;;;;;;;;;16.40;52.43;99917.22;4993108;27;98623;-69
2023/11/19 09:28:40;;;;;;;;;;;;;;;17.40;51.15;99905.25;4982978;27;107214;-69
2023/11/19 09:31:16;;;;;;;;;;;;;;;17.01;52.11;99921.84;4964755;27;99871;-65
2023/11/19 09:33:42;;;;;;;;;;;;;;;17.09;52.42;99921.81;4967216;27;104788;-69
2023/11/19 09:36:10;;;;;;;;;;;;;;;17.21;52.51;99918.44;4989291;27;106889;-69
2023/11/19 09:38:38;;;;;;;;;;;;;;;17.37;52.54;99926.88;4985647;27;97979;-65
2023/11/19 09:41:11;;;;;;;;;;;;;;;17.23;52.94;99916.19;4965264;27;98586;-65
2023/11/19 09:43:38;;;;;;;;;;;;;;;17.27;52.98;99917.16;4969193;27;98230;-65
2023/11/19 09:46:10;;;;;;;;;;;;;;;17.18;53.19;99921.84;4959156;27;98278;-69
2023/11/19 09:48:43;;;;;;;;;;;;;;;16.96;53.52;99925.53;4963663;27;98084;-65
2023/11/19 09:51:10;;;;;;;;;;;;;;;16.83;53.62;99918.38;4963191;27;98074;-65
2023/11/19 09:53:36;;;;;;;;;;;;;;;16.77;53.59;99920.44;4975888;27;98285;-65
2023/11/19 09:56:03;;;;;;;;;;;;;;;16.68;53.97;99914.19;4961724;27;102365;-65
2023/11/19 09:58:33;;;;;;;;;;;;;;;16.61;54.02;99902.97;4959009;27;98027;-65
2023/11/19 10:00:59;;;;;;;;;;;;;;;16.56;54.00;99903.16;4968372;27;98120;-65
2023/11/19 10:03:32;;;;;;;;;;;;;;;16.52;54.04;99899.47;4963313;27;98275;-65
2023/11/19 10:05:58;;;;;;;;;;;;;;;16.47;54.12;99895.00;4962730;27;99013;-65
2023/11/19 10:08:23;;;;;;;;;;;;;;;16.42;54.02;99895.94;4982234;27;127977;-70
2023/11/19 10:10:49;;;;;;;;;;;;;;;16.40;54.16;99903.63;4976537;27;123659;-65
2023/11/19 10:13:15;;;;;;;;;;;;;;;16.42;54.18;99906.81;4985180;27;98261;-70
2023/11/19 10:15:42;;;;;;;;;;;;;;;16.31;54.19;99904.72;4978127;27;125404;-70
2023/11/19 10:18:08;;;;;;;;;;;;;;;16.24;54.40;99904.41;4981074;27;101836;-65
2023/11/19 10:20:37;;;;;;;;;;;;;;;16.19;54.39;99908.91;4966062;27;98288;-70
2023/11/19 10:23:03;;;;;;;;;;;;;;;16.15;54.35;99896.22;4957694;27;100241;-70
2023/11/19 10:25:29;;;;;;;;;;;;;;;16.11;54.52;99900.69;4986350;27;97948;-65
2023/11/19 10:27:56;;;;;;;;;;;;;;;16.10;54.41;99899.91;4957678;27;98068;-70
2023/11/19 10:30:29;;;;;;;;;;;;;;;16.09;54.59;99892.06;4987636;27;99430;-65
2023/11/19 10:33:07;;;;;;;;;;;;;;;16.06;54.37;99887.28;4971069;27;98353;-70
2023/11/19 10:35:57;;;;;;;;;;;;;;;16.02;54.50;99886.31;4976535;27;98115;-65
2023/11/19 10:38:23;;;;;;;;;;;;;;;16.00;54.58;99883.13;4967761;27;99930;-69
2023/11/19 10:40:53;;;;;;;;;;;;;;;15.97;54.61;99875.59;4966301;27;98843;-64
2023/11/19 10:43:19;;;;;;;;;;;;;;;15.84;54.85;99877.34;4983656;27;98307;-69
2023/11/19 10:45:45;;;;;;;;;;;;;;;15.89;54.74;99882.59;5021451;27;98211;-64
2023/11/19 10:48:12;;;;;;;;;;;;;;;15.98;54.45;99885.34;4957197;27;98503;-69
2023/11/19 10:50:40;;;;;;;;;;;;;;;16.00;54.53;99881.19;4970089;27;97822;-69
2023/11/19 10:53:08;;;;;;;;;;;;;;;15.98;54.59;99874.47;4979984;27;98288;-70
2023/11/19 10:55:35;;;;;;;;;;;;;;;15.93;54.69;99868.06;4982642;27;98628;-69
2023/11/19 10:58:07;;;;;;;;;;;;;;;15.92;54.70;99873.84;4967855;27;98646;-65
2023/11/19 11:00:47;;;;;;;;;;;;;;;15.88;54.65;99870.94;4972332;27;98027;-70
2023/11/19 11:03:27;;;;;;;;;;;;;;;15.85;54.82;99873.50;4982984;27;98082;-65
2023/11/19 11:05:53;;;;;;;;;;;;;;;15.81;54.87;99867.88;4964897;27;98393;-65
2023/11/19 11:08:22;;;;;;;;;;;;;;;15.75;54.70;99863.69;4982505;27;98470;-65
2023/11/19 11:10:59;;;;;;;;;;;;;;;15.66;54.94;99858.25;4969313;27;98523;-70
2023/11/19 11:13:29;;;;;;;;;;;;;;;15.64;54.95;99859.63;4974750;27;98295;-64
2023/11/19 11:15:57;;;;;;;;;;;;;;;15.64;54.78;99865.91;4975606;27;99754;-70
2023/11/19 11:18:27;;;;;;;;;;;;;;;15.53;55.01;99861.06;4985792;27;98640;-65
2023/11/19 11:20:55;;;;;;;;;;;;;;;15.49;55.06;99863.63;4968028;27;98783;-70
2023/11/19 11:23:32;;;;;;;;;;;;;;;15.41;55.13;99872.53;4993773;27;98124;-65
2023/11/19 11:26:22;;;;;;;;;;;;;;;15.27;55.20;99869.91;4995575;27;99984;-65
2023/11/19 11:29:03;;;;;;;;;;;;;;;15.18;55.12;99879.94;4982576;27;98240;-65
2023/11/19 11:31:51;;;;;;;;;;;;;;;15.16;55.23;99876.72;4991369;27;98812;-65
2023/11/19 11:35:00;;;;;;;;;;;;;;;15.09;55.13;99890.75;4997918;27;98216;-70
2023/11/19 11:37:47;;;;;;;;;;;;;;;14.98;55.34;99881.25;4990319;27;98100;-65
2023/11/19 11:40:18;;;;;;;;;;;;;;;14.90;55.23;99888.25;4964655;27;98867;-65
2023/11/19 11:42:44;;;;;;;;;;;;;;;14.83;55.35;99878.94;4969858;27;98706;-70
2023/11/19 11:45:11;;;;;;;;;;;;;;;14.79;55.39;99886.09;4985913;27;98040;-65
2023/11/19 11:47:43;;;;;;;;;;;;;;;14.72;55.53;99889.22;4988655;27;99752;-70
2023/11/19 11:50:18;;;;;;;;;;;;;;;14.77;55.16;99889.09;5000748;27;99856;-65
2023/11/19 11:52:59;;;;;;;;;;;;;;;14.87;55.07;99886.13;4967929;27;98307;-71
2023/11/19 11:55:31;;;;;;;;;;;;;;;14.92;55.20;99885.19;4995167;27;98308;-70
2023/11/19 11:58:02;;;;;;;;;;;;;;;14.97;55.08;99885.06;4979703;27;98317;-70
2023/11/19 12:00:30;;;;;;;;;;;;;;;14.91;54.97;99884.41;4967780;27;98448;-70
2023/11/19 12:02:59;;;;;;;;;;;;;;;14.76;55.24;99865.00;4984026;27;98168;-65
2023/11/19 12:05:25;;;;;;;;;;;;;;;14.62;55.55;99865.03;4972801;27;99273;-65
2023/11/19 12:08:02;;;;;;;;;;;;;;;14.52;55.60;99889.72;4967144;27;98157;-70
2023/11/19 12:10:32;;;;;;;;;;;;;;;14.41;55.42;99894.53;4979814;27;98839;-65
2023/11/19 12:13:04;;;;;;;;;;;;;;;14.30;55.41;99888.53;4961625;27;98857;-65
2023/11/19 12:15:31;;;;;;;;;;;;;;;14.21;55.67;99890.38;4989993;27;98169;-65
2023/11/19 12:17:57;;;;;;;;;;;;;;;14.12;55.81;99879.47;4981747;27;98375;-65
2023/11/19 12:20:31;;;;;;;;;;;;;;;14.04;55.65;99869.34;4970162;27;98222;-65
2023/11/19 12:22:57;;;;;;;;;;;;;;;13.97;55.93;99872.47;4971874;27;98357;-70
2023/11/19 12:25:25;;;;;;;;;;;;;;;13.92;55.84;99869.88;4979132;27;98232;-65
2023/11/19 12:27:55;;;;;;;;;;;;;;;13.93;55.87;99863.34;4964879;27;98628;-65
2023/11/19 12:30:25;;;;;;;;;;;;;;;13.98;55.52;99859.72;4984792;27;98361;-65
2023/11/19 12:32:53;;;;;;;;;;;;;;;13.98;55.32;99860.50;4969495;27;98548;-65
2023/11/19 12:35:19;;;;;;;;;;;;;;;13.89;55.67;99851.50;4967636;27;98325;-70
2023/11/19 12:37:47;;;;;;;;;;;;;;;13.80;55.74;99856.03;4975525;27;97955;-65
2023/11/19 12:40:15;;;;;;;;;;;;;;;13.71;55.66;99857.84;4968724;27;98617;-70
2023/11/19 12:42:42;;;;;;;;;;;;;;;13.70;55.77;99861.66;4970775;27;98354;-70